createdAt,value
2022-09-11T04:00:47.247Z,16.50
2022-09-11T04:03:16.916Z,16.20
2022-09-11T04:05:57.548Z,16.20
2022-09-11T04:08:25.536Z,16.20
2022-09-11T04:10:58.370Z,16.40
2022-09-11T04:13:29.170Z,16.50
2022-09-11T04:16:03.049Z,16.30
2022-09-11T04:18:32.403Z,16.40
2022-09-11T04:21:00.402Z,16.50
2022-09-11T04:23:28.378Z,16.40
2022-09-11T04:25:56.405Z,16.70
2022-09-11T04:28:24.496Z,16.30
2022-09-11T04:30:52.468Z,15.90
2022-09-11T04:33:21.907Z,15.90
2022-09-11T04:35:50.160Z,16.30
2022-09-11T04:38:18.727Z,16.20
2022-09-11T04:40:46.713Z,16.30
2022-09-11T04:43:16.050Z,16.20
2022-09-11T04:45:44.121Z,16.50
2022-09-11T04:48:12.177Z,16.40
2022-09-11T04:50:41.539Z,16.10
2022-09-11T04:53:09.815Z,16.60
2022-09-11T04:55:37.815Z,16.90
2022-09-11T04:58:05.884Z,16.70
2022-09-11T05:00:35.208Z,16.90
2022-09-11T05:03:03.470Z,16.80
2022-09-11T05:05:31.509Z,17.00
2022-09-11T05:08:00.881Z,16.70
2022-09-11T05:10:28.868Z,16.70
2022-09-11T05:12:56.919Z,16.40
2022-09-11T05:15:24.942Z,17.00
2022-09-11T05:17:53.113Z,16.90
2022-09-11T05:20:21.095Z,17.10
2022-09-11T05:22:49.374Z,16.90
2022-09-11T05:25:19.171Z,17.00
2022-09-11T05:27:47.456Z,17.20
2022-09-11T05:30:15.674Z,17.30
2022-09-11T05:32:43.676Z,17.30
2022-09-11T05:35:11.760Z,17.60
2022-09-11T05:37:39.663Z,17.40
2022-09-11T05:40:09.220Z,17.70
2022-09-11T05:42:38.651Z,17.40
2022-09-11T05:45:08.261Z,17.50
2022-09-11T05:47:36.305Z,17.70
2022-09-11T05:50:04.399Z,17.90
2022-09-11T05:52:34.852Z,17.90
2022-09-11T05:55:03.303Z,18.00
2022-09-11T05:57:31.319Z,17.80
2022-09-11T06:00:00.713Z,18.10
2022-09-11T06:02:28.681Z,17.80
2022-09-11T06:04:56.716Z,18.20
2022-09-11T06:07:25.032Z,18.00
2022-09-11T06:09:53.141Z,17.70
2022-09-11T06:12:21.131Z,17.80
2022-09-11T06:14:49.147Z,18.10
2022-09-11T06:17:18.477Z,18.20
2022-09-11T06:19:46.479Z,18.30
2022-09-11T06:22:14.698Z,18.40
2022-09-11T06:24:43.043Z,18.30
2022-09-11T06:27:11.315Z,18.20
2022-09-11T06:29:39.360Z,18.30
2022-09-11T06:32:07.732Z,18.20
2022-09-11T06:34:37.706Z,18.40
2022-09-11T06:37:05.824Z,18.50
2022-09-11T06:39:34.958Z,18.50
2022-09-11T06:42:03.400Z,18.60
2022-09-11T06:44:31.421Z,18.80
2022-09-11T06:46:59.439Z,19.10
2022-09-11T06:49:27.675Z,18.80
2022-09-11T06:51:57.049Z,18.90
2022-09-11T06:54:25.009Z,19.10
2022-09-11T06:56:52.972Z,19.20
2022-09-11T06:59:23.794Z,19.30
2022-09-11T07:01:52.561Z,19.40
2022-09-11T07:04:20.651Z,19.50
2022-09-11T07:06:48.602Z,19.40
2022-09-11T07:09:18.074Z,19.60
2022-09-11T07:11:46.793Z,19.30
2022-09-11T07:14:14.847Z,19.40
2022-09-11T07:16:42.888Z,19.60
2022-09-11T07:19:11.170Z,19.70
2022-09-11T07:21:39.763Z,19.80
2022-09-11T07:24:10.091Z,20.00
2022-09-11T07:26:39.886Z,20.00
2022-09-11T07:29:08.014Z,19.90
2022-09-11T07:31:39.409Z,20.00
2022-09-11T07:34:07.417Z,19.60
2022-09-11T07:36:37.430Z,19.80
2022-09-11T07:39:05.717Z,19.60
2022-09-11T07:41:34.677Z,19.80
2022-09-11T07:44:06.020Z,20.20
2022-09-11T07:46:34.210Z,20.50
2022-09-11T07:49:02.886Z,20.80
2022-09-11T07:51:31.004Z,20.20
2022-09-11T07:54:00.022Z,20.50
2022-09-11T07:56:29.289Z,20.60
2022-09-11T07:58:58.201Z,20.60
2022-09-11T08:01:30.581Z,20.90
2022-09-11T08:04:01.435Z,21.20
2022-09-11T08:06:32.012Z,21.50
2022-09-11T08:09:03.697Z,22.00
2022-09-11T08:11:36.185Z,22.30
2022-09-11T08:14:04.998Z,22.20
2022-09-11T08:16:36.099Z,22.30
2022-09-11T08:19:05.212Z,22.60
2022-09-11T08:21:34.450Z,22.50
2022-09-11T08:24:03.963Z,22.50
2022-09-11T08:26:32.097Z,22.30
2022-09-11T08:29:01.887Z,22.80
2022-09-11T08:31:30.284Z,22.90
2022-09-11T08:33:59.660Z,22.20
2022-09-11T08:36:28.584Z,22.80
2022-09-11T08:38:57.201Z,23.10
2022-09-11T08:41:36.107Z,22.80
2022-09-11T08:44:11.817Z,22.80
2022-09-11T08:46:44.135Z,23.00
2022-09-11T08:49:22.484Z,23.20
2022-09-11T08:51:52.051Z,23.40
2022-09-11T08:54:33.362Z,23.90
2022-09-11T08:57:16.687Z,24.00
2022-09-11T09:00:14.258Z,24.20
2022-09-11T09:03:25.406Z,23.40
2022-09-11T09:06:06.173Z,24.00
2022-09-11T09:08:57.379Z,23.60
2022-09-11T09:11:39.068Z,23.80
2022-09-11T09:14:42.058Z,23.60
2022-09-11T09:17:17.095Z,23.80
2022-09-11T09:19:53.696Z,23.70
2022-09-11T09:22:30.835Z,23.60
2022-09-11T09:25:05.904Z,23.70
2022-09-11T09:27:45.336Z,23.60
2022-09-11T09:30:18.788Z,23.30
2022-09-11T09:32:56.129Z,22.90
2022-09-11T09:35:31.095Z,23.20
2022-09-11T09:38:00.781Z,23.30
2022-09-11T09:40:33.629Z,23.40
2022-09-11T09:43:30.620Z,22.80
2022-09-11T09:46:16.684Z,23.10
2022-09-11T09:48:45.137Z,23.10
2022-09-11T09:51:15.198Z,23.30
2022-09-11T09:53:51.753Z,23.50
2022-09-11T09:56:23.641Z,24.10
2022-09-11T09:59:02.858Z,24.30
2022-09-11T10:01:50.122Z,24.10
2022-09-11T10:04:22.704Z,24.20
2022-09-11T10:06:55.207Z,23.20
2022-09-11T10:09:29.612Z,23.00
2022-09-11T10:12:03.677Z,22.90
2022-09-11T10:14:54.681Z,22.80
2022-09-11T10:17:33.496Z,23.00
2022-09-11T10:20:22.933Z,23.40
2022-09-11T10:22:52.457Z,23.80
2022-09-11T10:25:26.964Z,23.80
2022-09-11T10:28:04.143Z,23.90
2022-09-11T10:30:39.537Z,23.20
2022-09-11T10:33:21.154Z,23.10
2022-09-11T10:35:54.233Z,22.40
2022-09-11T10:38:37.008Z,22.50
2022-09-11T10:41:19.185Z,22.90
2022-09-11T10:43:55.861Z,22.50
2022-09-11T10:46:40.588Z,22.50
2022-09-11T10:49:18.088Z,22.80
2022-09-11T10:52:02.538Z,23.00
2022-09-11T10:54:45.854Z,23.50
2022-09-11T10:57:25.277Z,23.00
2022-09-11T11:00:06.709Z,23.20
2022-09-11T11:02:38.555Z,24.70
2022-09-11T11:05:13.029Z,25.90
2022-09-11T11:08:27.707Z,27.40
2022-09-11T11:11:15.869Z,27.40
2022-09-11T11:14:13.254Z,26.10
2022-09-11T11:16:55.236Z,25.70
2022-09-11T11:19:44.855Z,25.30
2022-09-11T11:22:34.380Z,25.00
2022-09-11T11:25:17.693Z,24.90
2022-09-11T11:28:24.872Z,24.70
2022-09-11T11:31:10.519Z,24.10
2022-09-11T11:34:10.390Z,24.30
2022-09-11T11:36:46.146Z,24.40
2022-09-11T11:39:25.611Z,24.00
2022-09-11T11:42:09.643Z,24.50
2022-09-11T11:44:46.563Z,24.70
2022-09-11T11:47:25.166Z,26.40
2022-09-11T11:50:05.860Z,28.40
2022-09-11T11:52:52.278Z,30.00
2022-09-11T11:55:26.158Z,31.30
2022-09-11T11:58:06.872Z,33.30
2022-09-11T12:00:45.079Z,34.40
2022-09-11T12:03:23.748Z,35.00
2022-09-11T12:05:51.965Z,34.20
2022-09-11T12:08:20.137Z,33.60
2022-09-11T12:10:58.453Z,32.00
2022-09-11T12:13:32.387Z,31.30
2022-09-11T12:16:15.522Z,30.60
2022-09-11T12:19:15.500Z,31.00
2022-09-11T12:22:07.638Z,31.70
2022-09-11T12:24:58.932Z,30.20
2022-09-11T12:28:11.244Z,33.10
2022-09-11T12:31:06.138Z,36.30
2022-09-11T12:33:56.511Z,33.10
2022-09-11T12:36:51.083Z,31.70
2022-09-11T12:39:27.572Z,29.50
2022-09-11T12:42:56.033Z,29.30
2022-09-11T12:45:38.758Z,27.30
2022-09-11T12:48:14.218Z,26.40
2022-09-11T12:50:51.897Z,26.60
2022-09-11T12:53:27.723Z,24.90
2022-09-11T12:56:00.750Z,24.40
2022-09-11T12:58:40.333Z,24.40
2022-09-11T13:01:18.728Z,24.50
2022-09-11T13:04:01.797Z,24.80
2022-09-11T13:06:42.111Z,25.40
2022-09-11T13:09:23.138Z,25.10
2022-09-11T13:11:53.409Z,25.80
2022-09-11T13:14:51.730Z,24.90
2022-09-11T13:17:30.064Z,23.60
2022-09-11T13:20:22.524Z,23.80
2022-09-11T13:22:54.809Z,23.50
2022-09-11T13:25:27.844Z,23.10
2022-09-11T13:28:02.246Z,23.30
2022-09-11T13:30:32.301Z,23.00
2022-09-11T13:33:08.717Z,23.30
2022-09-11T13:35:40.166Z,23.00
2022-09-11T13:38:11.872Z,23.00
2022-09-11T13:40:47.206Z,23.40
2022-09-11T13:43:20.748Z,23.50
2022-09-11T13:45:50.274Z,22.80
2022-09-11T13:48:22.805Z,22.70
2022-09-11T13:50:52.601Z,22.80
2022-09-11T13:53:22.385Z,22.90
2022-09-11T13:55:50.651Z,22.90
2022-09-11T13:58:26.091Z,22.70
2022-09-11T14:00:55.995Z,23.50
2022-09-11T14:03:28.634Z,23.80
2022-09-11T14:05:59.646Z,23.80
2022-09-11T14:08:34.213Z,24.60
2022-09-11T14:11:11.119Z,26.90
2022-09-11T14:13:47.019Z,29.50
2022-09-11T14:16:27.437Z,33.50
2022-09-11T14:19:02.787Z,35.90
2022-09-11T14:21:35.299Z,38.70
2022-09-11T14:24:07.119Z,39.20
2022-09-11T14:26:42.659Z,41.20
2022-09-11T14:29:25.461Z,41.50
2022-09-11T14:31:56.545Z,43.80
2022-09-11T14:34:28.332Z,44.70
2022-09-11T14:37:04.136Z,44.90
2022-09-11T14:39:38.734Z,44.80
2022-09-11T14:42:10.532Z,44.60
2022-09-11T14:44:41.279Z,45.00
2022-09-11T14:47:17.199Z,45.20
2022-09-11T14:49:45.923Z,43.40
2022-09-11T14:52:17.176Z,43.80
2022-09-11T14:54:45.345Z,43.50
2022-09-11T14:57:20.391Z,41.40
2022-09-11T14:59:48.967Z,42.00
2022-09-11T15:02:22.220Z,39.40
2022-09-11T15:04:51.933Z,37.90
2022-09-11T15:07:22.432Z,33.60
2022-09-11T15:09:51.539Z,33.10
2022-09-11T15:12:20.700Z,32.00
2022-09-11T15:14:58.069Z,30.50
2022-09-11T15:17:31.299Z,28.30
2022-09-11T15:20:00.541Z,26.90
2022-09-11T15:22:28.788Z,27.10
2022-09-11T15:24:56.762Z,27.60
2022-09-11T15:27:25.314Z,25.60
2022-09-11T15:29:54.363Z,25.00
2022-09-11T15:32:22.552Z,24.00
2022-09-11T15:34:52.061Z,23.80
2022-09-11T15:37:20.009Z,23.60
2022-09-11T15:39:48.016Z,23.80
2022-09-11T15:42:15.986Z,23.10
2022-09-11T15:44:45.987Z,22.90
2022-09-11T15:47:14.841Z,22.70
2022-09-11T15:49:46.668Z,23.00
2022-09-11T15:52:16.433Z,23.00
2022-09-11T15:54:45.497Z,23.00
2022-09-11T15:57:13.447Z,23.20
2022-09-11T15:59:42.764Z,23.40
2022-09-11T16:02:13.007Z,23.30
2022-09-11T16:04:41.015Z,23.50
2022-09-11T16:07:08.987Z,23.30
2022-09-11T16:09:38.268Z,23.40
2022-09-11T16:12:06.472Z,23.40
2022-09-11T16:14:38.384Z,23.10
2022-09-11T16:17:08.293Z,23.20
2022-09-11T16:19:38.569Z,23.00
2022-09-11T16:22:11.314Z,23.00
2022-09-11T16:24:40.784Z,22.90
2022-09-11T16:27:11.421Z,22.80
2022-09-11T16:32:29.309Z,22.40
2022-09-11T16:34:59.417Z,22.40
2022-09-11T16:37:28.965Z,22.40
2022-09-11T16:39:59.196Z,22.30
2022-09-11T16:42:27.168Z,22.10
2022-09-11T16:44:55.448Z,22.10
2022-09-11T16:47:24.244Z,21.90
2022-09-11T16:50:08.923Z,21.90
2022-09-11T16:52:37.372Z,22.10
2022-09-11T16:55:09.809Z,22.10
2022-09-11T16:57:39.079Z,22.10
2022-09-11T17:00:09.764Z,22.00
2022-09-11T17:02:38.334Z,22.00
2022-09-11T17:05:08.114Z,22.00
2022-09-11T17:07:36.552Z,22.10
2022-09-11T17:10:06.834Z,21.90
2022-09-11T17:12:34.944Z,21.80
2022-09-11T17:15:03.081Z,21.70
2022-09-11T17:17:31.246Z,21.40
2022-09-11T17:19:59.359Z,21.40
2022-09-11T17:22:29.615Z,21.20
2022-09-11T17:24:57.520Z,21.10
2022-09-11T17:27:27.366Z,20.80
2022-09-11T17:29:55.407Z,21.00
2022-09-11T17:32:28.267Z,20.90
2022-09-11T17:34:58.048Z,20.90
2022-09-11T17:37:26.819Z,20.90
2022-09-11T17:39:55.345Z,20.80
2022-09-11T17:42:23.741Z,20.70
2022-09-11T17:44:53.141Z,20.70
2022-09-11T17:47:21.433Z,20.70
2022-09-11T17:49:49.997Z,20.60
2022-09-11T17:52:20.245Z,20.50
2022-09-11T17:54:48.936Z,20.50
2022-09-11T17:57:17.126Z,20.50
2022-09-11T17:59:45.166Z,20.30
2022-09-11T18:02:14.978Z,20.20
2022-09-11T18:04:44.527Z,20.10
2022-09-11T18:07:12.642Z,19.90
2022-09-11T18:09:40.703Z,19.60
2022-09-11T18:12:09.942Z,19.50
2022-09-11T18:14:38.868Z,19.60
2022-09-11T18:17:07.570Z,19.40
2022-09-11T18:19:38.723Z,19.30
2022-09-11T18:22:09.615Z,19.20
2022-09-11T18:24:39.853Z,19.20
2022-09-11T18:27:09.825Z,18.90
2022-09-11T18:29:39.926Z,18.90
2022-09-11T18:32:10.130Z,18.90
2022-09-11T18:34:40.088Z,18.70
2022-09-11T18:37:08.587Z,18.60
2022-09-11T18:39:38.312Z,18.60
2022-09-11T18:42:07.498Z,18.50
2022-09-11T18:44:35.668Z,18.40
2022-09-11T18:47:03.755Z,18.20
2022-09-11T18:49:31.865Z,18.30
2022-09-11T18:52:01.844Z,17.90
2022-09-11T18:54:31.426Z,17.20
2022-09-11T18:57:00.292Z,16.90
2022-09-11T18:59:28.573Z,17.10
2022-09-11T19:01:57.083Z,17.30
2022-09-11T19:04:25.943Z,16.70
2022-09-11T19:06:53.888Z,17.00
2022-09-11T19:09:23.784Z,16.40
2022-09-11T19:11:54.693Z,16.10
2022-09-11T19:14:22.734Z,15.90
2022-09-11T19:16:51.709Z,16.10
2022-09-11T19:19:19.829Z,16.10
2022-09-11T19:21:48.549Z,16.10
2022-09-11T19:24:16.576Z,16.00
2022-09-11T19:26:46.675Z,16.10
2022-09-11T19:29:15.728Z,16.10
2022-09-11T19:31:44.027Z,15.90
2022-09-11T19:34:13.474Z,16.10
2022-09-11T19:36:42.254Z,16.10
2022-09-11T19:39:12.221Z,16.30
2022-09-11T19:41:40.826Z,16.40
2022-09-11T19:44:13.975Z,16.30
2022-09-11T19:46:46.010Z,16.10
2022-09-11T19:49:14.047Z,16.40
2022-09-11T19:51:44.943Z,16.70
2022-09-11T19:54:14.810Z,16.60
2022-09-11T19:56:44.333Z,16.80
2022-09-11T19:59:14.573Z,16.90
2022-09-11T20:01:43.304Z,16.90
2022-09-11T20:04:13.431Z,16.80
2022-09-11T20:06:41.543Z,16.70
2022-09-11T20:12:00.471Z,17.00
2022-09-11T20:14:31.232Z,16.40
2022-09-11T20:17:00.889Z,16.70
2022-09-11T20:19:29.214Z,16.90
2022-09-11T20:21:57.209Z,16.30
2022-09-11T20:24:25.318Z,16.30
2022-09-11T20:26:54.646Z,16.30
2022-09-11T20:29:22.730Z,15.70
2022-09-11T20:31:54.011Z,15.70
2022-09-11T20:34:25.659Z,16.10
2022-09-11T20:36:53.613Z,15.90
2022-09-11T20:39:23.186Z,16.30
2022-09-11T20:41:51.161Z,16.50
2022-09-11T20:44:19.337Z,16.30
2022-09-11T20:46:48.210Z,15.80
2022-09-11T20:49:17.604Z,16.30
2022-09-11T20:51:45.596Z,16.70
2022-09-11T20:54:13.792Z,16.20
2022-09-11T20:56:41.902Z,16.40
2022-09-11T20:59:09.837Z,16.40
